sensor_id;sensor_type;location;lat;lon;timestamp;P1;durP1;ratioP1;P2;durP2;ratioP2
51828;SDS011;37881;48.024;8.774;2022-12-07T00:01:06;16.33;;;6.05;;
51828;SDS011;37881;48.024;8.774;2022-12-07T00:03:34;14.32;;;5.20;;
51828;SDS011;37881;48.024;8.774;2022-12-07T00:06:03;15.32;;;5.93;;
51828;SDS011;37881;48.024;8.774;2022-12-07T00:08:31;18.53;;;6.00;;
51828;SDS011;37881;48.024;8.774;2022-12-07T00:11:09;16.17;;;6.03;;
51828;SDS011;37881;48.024;8.774;2022-12-07T00:13:38;18.48;;;6.55;;
51828;SDS011;37881;48.024;8.774;2022-12-07T00:16:10;14.45;;;5.57;;
51828;SDS011;37881;48.024;8.774;2022-12-07T00:18:39;14.70;;;5.50;;
51828;SDS011;37881;48.024;8.774;2022-12-07T00:21:09;17.30;;;5.80;;
51828;SDS011;37881;48.024;8.774;2022-12-07T00:23:37;15.00;;;5.50;;
51828;SDS011;37881;48.024;8.774;2022-12-07T00:28:50;18.65;;;6.38;;
51828;SDS011;37881;48.024;8.774;2022-12-07T00:31:21;20.65;;;5.90;;
51828;SDS011;37881;48.024;8.774;2022-12-07T00:33:50;17.60;;;6.20;;
51828;SDS011;37881;48.024;8.774;2022-12-07T00:36:18;18.98;;;6.65;;
51828;SDS011;37881;48.024;8.774;2022-12-07T00:38:52;15.45;;;5.57;;
51828;SDS011;37881;48.024;8.774;2022-12-07T00:41:20;16.33;;;5.90;;
51828;SDS011;37881;48.024;8.774;2022-12-07T00:43:48;14.25;;;5.82;;
51828;SDS011;37881;48.024;8.774;2022-12-07T00:46:16;14.32;;;5.88;;
51828;SDS011;37881;48.024;8.774;2022-12-07T00:48:43;15.43;;;5.72;;
51828;SDS011;37881;48.024;8.774;2022-12-07T00:51:11;14.32;;;6.43;;
51828;SDS011;37881;48.024;8.774;2022-12-07T00:53:39;15.98;;;6.72;;
51828;SDS011;37881;48.024;8.774;2022-12-07T00:56:17;15.65;;;6.72;;
51828;SDS011;37881;48.024;8.774;2022-12-07T00:58:49;15.48;;;6.03;;
51828;SDS011;37881;48.024;8.774;2022-12-07T01:01:17;18.05;;;7.00;;
51828;SDS011;37881;48.024;8.774;2022-12-07T01:03:44;17.23;;;6.25;;
51828;SDS011;37881;48.024;8.774;2022-12-07T01:06:13;14.55;;;5.90;;
51828;SDS011;37881;48.024;8.774;2022-12-07T01:08:41;15.38;;;5.95;;
51828;SDS011;37881;48.024;8.774;2022-12-07T01:11:09;15.43;;;5.88;;
51828;SDS011;37881;48.024;8.774;2022-12-07T01:13:39;14.95;;;6.10;;
51828;SDS011;37881;48.024;8.774;2022-12-07T01:16:07;14.23;;;5.60;;
51828;SDS011;37881;48.024;8.774;2022-12-07T01:18:34;14.20;;;5.28;;
51828;SDS011;37881;48.024;8.774;2022-12-07T01:21:03;13.50;;;5.40;;
51828;SDS011;37881;48.024;8.774;2022-12-07T01:23:35;13.75;;;5.15;;
51828;SDS011;37881;48.024;8.774;2022-12-07T01:26:05;17.17;;;6.10;;
51828;SDS011;37881;48.024;8.774;2022-12-07T01:28:34;15.20;;;5.55;;
51828;SDS011;37881;48.024;8.774;2022-12-07T01:31:02;14.23;;;5.90;;
51828;SDS011;37881;48.024;8.774;2022-12-07T01:33:34;15.52;;;5.45;;
51828;SDS011;37881;48.024;8.774;2022-12-07T01:36:15;14.18;;;5.88;;
51828;SDS011;37881;48.024;8.774;2022-12-07T01:38:47;14.88;;;5.53;;
51828;SDS011;37881;48.024;8.774;2022-12-07T01:41:15;24.50;;;8.20;;
51828;SDS011;37881;48.024;8.774;2022-12-07T01:46:33;20.67;;;6.28;;
51828;SDS011;37881;48.024;8.774;2022-12-07T01:49:00;19.13;;;6.78;;
51828;SDS011;37881;48.024;8.774;2022-12-07T01:51:27;17.80;;;6.97;;
51828;SDS011;37881;48.024;8.774;2022-12-07T01:53:54;21.52;;;7.38;;
51828;SDS011;37881;48.024;8.774;2022-12-07T01:56:23;19.00;;;6.13;;
51828;SDS011;37881;48.024;8.774;2022-12-07T01:58:53;16.95;;;6.20;;
51828;SDS011;37881;48.024;8.774;2022-12-07T02:01:22;15.23;;;5.60;;
51828;SDS011;37881;48.024;8.774;2022-12-07T02:03:49;15.63;;;5.68;;
51828;SDS011;37881;48.024;8.774;2022-12-07T02:06:17;13.02;;;5.43;;
51828;SDS011;37881;48.024;8.774;2022-12-07T02:08:47;14.63;;;5.63;;
51828;SDS011;37881;48.024;8.774;2022-12-07T02:11:14;12.32;;;5.35;;
51828;SDS011;37881;48.024;8.774;2022-12-07T02:13:42;12.40;;;4.67;;
51828;SDS011;37881;48.024;8.774;2022-12-07T02:16:17;12.20;;;4.57;;
51828;SDS011;37881;48.024;8.774;2022-12-07T02:19:06;12.20;;;4.72;;
51828;SDS011;37881;48.024;8.774;2022-12-07T02:22:00;12.32;;;4.38;;
51828;SDS011;37881;48.024;8.774;2022-12-07T02:27:47;8.50;;;3.67;;
51828;SDS011;37881;48.024;8.774;2022-12-07T02:30:22;10.02;;;4.00;;
51828;SDS011;37881;48.024;8.774;2022-12-07T02:32:59;8.45;;;3.90;;
51828;SDS011;37881;48.024;8.774;2022-12-07T02:35:35;9.77;;;3.92;;
51828;SDS011;37881;48.024;8.774;2022-12-07T02:41:11;10.80;;;4.00;;
51828;SDS011;37881;48.024;8.774;2022-12-07T02:43:43;11.38;;;4.88;;
51828;SDS011;37881;48.024;8.774;2022-12-07T02:46:17;12.00;;;4.63;;
51828;SDS011;37881;48.024;8.774;2022-12-07T02:48:49;13.30;;;4.88;;
51828;SDS011;37881;48.024;8.774;2022-12-07T02:51:17;11.10;;;4.55;;
51828;SDS011;37881;48.024;8.774;2022-12-07T02:53:45;13.38;;;4.70;;
51828;SDS011;37881;48.024;8.774;2022-12-07T03:01:37;13.93;;;5.28;;
51828;SDS011;37881;48.024;8.774;2022-12-07T03:04:25;12.48;;;5.05;;
51828;SDS011;37881;48.024;8.774;2022-12-07T03:10:16;13.65;;;5.00;;
51828;SDS011;37881;48.024;8.774;2022-12-07T03:13:02;14.55;;;5.47;;
51828;SDS011;37881;48.024;8.774;2022-12-07T03:18:00;10.30;;;4.32;;
51828;SDS011;37881;48.024;8.774;2022-12-07T03:20:29;9.87;;;4.10;;
51828;SDS011;37881;48.024;8.774;2022-12-07T03:22:59;11.15;;;4.50;;
51828;SDS011;37881;48.024;8.774;2022-12-07T03:25:26;11.65;;;4.90;;
51828;SDS011;37881;48.024;8.774;2022-12-07T03:27:58;11.27;;;4.80;;
51828;SDS011;37881;48.024;8.774;2022-12-07T03:30:33;12.00;;;5.55;;
51828;SDS011;37881;48.024;8.774;2022-12-07T03:33:07;13.32;;;5.20;;
51828;SDS011;37881;48.024;8.774;2022-12-07T03:35:49;11.88;;;4.90;;
51828;SDS011;37881;48.024;8.774;2022-12-07T03:38:25;11.57;;;4.97;;
51828;SDS011;37881;48.024;8.774;2022-12-07T03:43:37;10.85;;;4.63;;
51828;SDS011;37881;48.024;8.774;2022-12-07T03:49:08;10.98;;;4.82;;
51828;SDS011;37881;48.024;8.774;2022-12-07T03:51:55;11.38;;;4.93;;
51828;SDS011;37881;48.024;8.774;2022-12-07T03:54:31;13.13;;;4.93;;
51828;SDS011;37881;48.024;8.774;2022-12-07T03:57:03;10.70;;;4.45;;
51828;SDS011;37881;48.024;8.774;2022-12-07T03:59:32;10.40;;;4.65;;
51828;SDS011;37881;48.024;8.774;2022-12-07T04:02:03;12.25;;;4.88;;
51828;SDS011;37881;48.024;8.774;2022-12-07T04:04:32;11.43;;;4.40;;
51828;SDS011;37881;48.024;8.774;2022-12-07T04:07:00;10.50;;;4.53;;
51828;SDS011;37881;48.024;8.774;2022-12-07T04:09:27;12.00;;;4.63;;
51828;SDS011;37881;48.024;8.774;2022-12-07T04:11:53;10.55;;;5.10;;
51828;SDS011;37881;48.024;8.774;2022-12-07T04:14:20;11.18;;;4.95;;
51828;SDS011;37881;48.024;8.774;2022-12-07T04:17:05;12.52;;;5.07;;
51828;SDS011;37881;48.024;8.774;2022-12-07T04:19:32;12.60;;;5.35;;
51828;SDS011;37881;48.024;8.774;2022-12-07T04:22:01;9.55;;;4.60;;
51828;SDS011;37881;48.024;8.774;2022-12-07T04:24:28;9.13;;;4.13;;
51828;SDS011;37881;48.024;8.774;2022-12-07T04:26:55;10.52;;;4.70;;
51828;SDS011;37881;48.024;8.774;2022-12-07T04:29:22;12.40;;;6.03;;
51828;SDS011;37881;48.024;8.774;2022-12-07T04:31:49;10.20;;;4.60;;
51828;SDS011;37881;48.024;8.774;2022-12-07T04:34:17;10.93;;;4.88;;
51828;SDS011;37881;48.024;8.774;2022-12-07T04:36:44;12.25;;;4.55;;
51828;SDS011;37881;48.024;8.774;2022-12-07T04:39:26;11.48;;;4.53;;
51828;SDS011;37881;48.024;8.774;2022-12-07T04:41:58;11.38;;;4.32;;
51828;SDS011;37881;48.024;8.774;2022-12-07T04:44:26;13.15;;;5.60;;
51828;SDS011;37881;48.024;8.774;2022-12-07T04:46:55;12.45;;;5.03;;
51828;SDS011;37881;48.024;8.774;2022-12-07T04:49:23;11.80;;;4.55;;
51828;SDS011;37881;48.024;8.774;2022-12-07T04:51:51;10.77;;;4.50;;
51828;SDS011;37881;48.024;8.774;2022-12-07T04:54:18;13.32;;;5.38;;
51828;SDS011;37881;48.024;8.774;2022-12-07T04:56:45;14.52;;;5.72;;
51828;SDS011;37881;48.024;8.774;2022-12-07T04:59:12;13.60;;;5.55;;
51828;SDS011;37881;48.024;8.774;2022-12-07T05:01:40;11.85;;;4.93;;
51828;SDS011;37881;48.024;8.774;2022-12-07T05:04:06;11.82;;;5.38;;
51828;SDS011;37881;48.024;8.774;2022-12-07T05:06:34;11.10;;;4.80;;
51828;SDS011;37881;48.024;8.774;2022-12-07T05:09:01;12.23;;;5.30;;
51828;SDS011;37881;48.024;8.774;2022-12-07T05:11:28;12.20;;;5.78;;
51828;SDS011;37881;48.024;8.774;2022-12-07T05:14:18;11.40;;;5.53;;
51828;SDS011;37881;48.024;8.774;2022-12-07T05:16:47;10.65;;;5.10;;
51828;SDS011;37881;48.024;8.774;2022-12-07T05:19:16;10.68;;;5.00;;
51828;SDS011;37881;48.024;8.774;2022-12-07T05:21:43;9.85;;;4.57;;
51828;SDS011;37881;48.024;8.774;2022-12-07T05:24:11;10.95;;;5.00;;
51828;SDS011;37881;48.024;8.774;2022-12-07T05:26:39;9.27;;;4.40;;
51828;SDS011;37881;48.024;8.774;2022-12-07T05:29:06;9.13;;;4.65;;
51828;SDS011;37881;48.024;8.774;2022-12-07T05:31:33;11.60;;;5.03;;
51828;SDS011;37881;48.024;8.774;2022-12-07T05:34:01;10.45;;;4.68;;
51828;SDS011;37881;48.024;8.774;2022-12-07T05:36:28;10.50;;;4.90;;
51828;SDS011;37881;48.024;8.774;2022-12-07T05:38:57;9.48;;;4.55;;
51828;SDS011;37881;48.024;8.774;2022-12-07T05:41:24;10.27;;;4.63;;
51828;SDS011;37881;48.024;8.774;2022-12-07T05:44:10;10.73;;;5.00;;
51828;SDS011;37881;48.024;8.774;2022-12-07T05:46:37;8.98;;;4.25;;
51828;SDS011;37881;48.024;8.774;2022-12-07T05:49:03;12.23;;;5.57;;
51828;SDS011;37881;48.024;8.774;2022-12-07T05:51:30;9.98;;;5.13;;
51828;SDS011;37881;48.024;8.774;2022-12-07T05:53:57;11.52;;;5.35;;
51828;SDS011;37881;48.024;8.774;2022-12-07T05:56:23;11.88;;;5.78;;
51828;SDS011;37881;48.024;8.774;2022-12-07T05:58:50;11.43;;;5.57;;
51828;SDS011;37881;48.024;8.774;2022-12-07T06:01:37;11.88;;;6.30;;
51828;SDS011;37881;48.024;8.774;2022-12-07T06:04:03;13.55;;;6.75;;
51828;SDS011;37881;48.024;8.774;2022-12-07T06:06:30;12.18;;;6.18;;
51828;SDS011;37881;48.024;8.774;2022-12-07T06:08:57;9.75;;;5.07;;
51828;SDS011;37881;48.024;8.774;2022-12-07T06:11:24;12.02;;;5.30;;
51828;SDS011;37881;48.024;8.774;2022-12-07T06:14:09;11.52;;;5.30;;
51828;SDS011;37881;48.024;8.774;2022-12-07T06:16:36;13.15;;;5.38;;
51828;SDS011;37881;48.024;8.774;2022-12-07T06:19:02;12.48;;;6.07;;
51828;SDS011;37881;48.024;8.774;2022-12-07T06:21:29;12.98;;;5.70;;
51828;SDS011;37881;48.024;8.774;2022-12-07T06:23:56;10.23;;;5.35;;
51828;SDS011;37881;48.024;8.774;2022-12-07T06:26:22;14.35;;;5.78;;
51828;SDS011;37881;48.024;8.774;2022-12-07T06:28:49;13.38;;;6.43;;
51828;SDS011;37881;48.024;8.774;2022-12-07T06:31:16;14.68;;;7.10;;
51828;SDS011;37881;48.024;8.774;2022-12-07T06:33:43;16.13;;;7.53;;
51828;SDS011;37881;48.024;8.774;2022-12-07T06:36:10;14.90;;;6.90;;
51828;SDS011;37881;48.024;8.774;2022-12-07T06:38:36;15.85;;;7.65;;
51828;SDS011;37881;48.024;8.774;2022-12-07T06:41:04;15.50;;;7.00;;
51828;SDS011;37881;48.024;8.774;2022-12-07T06:43:30;18.83;;;8.15;;
51828;SDS011;37881;48.024;8.774;2022-12-07T06:45:57;17.30;;;7.40;;
51828;SDS011;37881;48.024;8.774;2022-12-07T06:48:24;17.02;;;7.32;;
51828;SDS011;37881;48.024;8.774;2022-12-07T06:50:51;17.33;;;8.75;;
51828;SDS011;37881;48.024;8.774;2022-12-07T06:53:20;17.25;;;7.75;;
51828;SDS011;37881;48.024;8.774;2022-12-07T06:55:48;18.63;;;7.90;;
51828;SDS011;37881;48.024;8.774;2022-12-07T06:58:15;18.58;;;8.50;;
51828;SDS011;37881;48.024;8.774;2022-12-07T07:00:43;15.73;;;6.95;;
51828;SDS011;37881;48.024;8.774;2022-12-07T07:03:10;16.77;;;7.78;;
51828;SDS011;37881;48.024;8.774;2022-12-07T07:05:38;16.85;;;7.70;;
51828;SDS011;37881;48.024;8.774;2022-12-07T07:08:04;19.08;;;7.85;;
51828;SDS011;37881;48.024;8.774;2022-12-07T07:10:48;17.10;;;7.80;;
51828;SDS011;37881;48.024;8.774;2022-12-07T07:13:15;13.95;;;6.18;;
51828;SDS011;37881;48.024;8.774;2022-12-07T07:15:42;17.10;;;7.53;;
51828;SDS011;37881;48.024;8.774;2022-12-07T07:18:08;16.45;;;7.65;;
51828;SDS011;37881;48.024;8.774;2022-12-07T07:20:36;17.60;;;7.47;;
51828;SDS011;37881;48.024;8.774;2022-12-07T07:23:06;19.52;;;9.07;;
51828;SDS011;37881;48.024;8.774;2022-12-07T07:25:33;18.65;;;8.45;;
51828;SDS011;37881;48.024;8.774;2022-12-07T07:28:00;18.35;;;8.30;;
51828;SDS011;37881;48.024;8.774;2022-12-07T07:30:27;18.23;;;8.43;;
51828;SDS011;37881;48.024;8.774;2022-12-07T07:32:57;19.77;;;8.63;;
51828;SDS011;37881;48.024;8.774;2022-12-07T07:35:25;20.92;;;9.85;;
51828;SDS011;37881;48.024;8.774;2022-12-07T07:37:52;17.88;;;8.38;;
51828;SDS011;37881;48.024;8.774;2022-12-07T07:40:19;18.70;;;8.93;;
51828;SDS011;37881;48.024;8.774;2022-12-07T07:42:49;18.35;;;8.60;;
51828;SDS011;37881;48.024;8.774;2022-12-07T07:45:21;16.05;;;8.10;;
51828;SDS011;37881;48.024;8.774;2022-12-07T07:47:49;13.30;;;6.13;;
51828;SDS011;37881;48.024;8.774;2022-12-07T07:50:16;13.55;;;6.10;;
51828;SDS011;37881;48.024;8.774;2022-12-07T07:52:44;14.75;;;6.80;;
51828;SDS011;37881;48.024;8.774;2022-12-07T07:55:11;13.73;;;6.38;;
51828;SDS011;37881;48.024;8.774;2022-12-07T07:57:38;13.02;;;5.70;;
51828;SDS011;37881;48.024;8.774;2022-12-07T08:00:10;11.90;;;5.65;;
51828;SDS011;37881;48.024;8.774;2022-12-07T08:02:39;10.75;;;5.05;;
51828;SDS011;37881;48.024;8.774;2022-12-07T08:05:06;10.57;;;5.13;;
51828;SDS011;37881;48.024;8.774;2022-12-07T08:07:33;10.75;;;5.10;;
51828;SDS011;37881;48.024;8.774;2022-12-07T08:10:00;13.40;;;6.00;;
51828;SDS011;37881;48.024;8.774;2022-12-07T08:12:27;14.20;;;7.90;;
51828;SDS011;37881;48.024;8.774;2022-12-07T08:14:54;18.83;;;9.70;;
51828;SDS011;37881;48.024;8.774;2022-12-07T08:17:21;16.83;;;9.13;;
51828;SDS011;37881;48.024;8.774;2022-12-07T08:19:47;13.82;;;7.18;;
51828;SDS011;37881;48.024;8.774;2022-12-07T08:22:14;15.50;;;7.25;;
51828;SDS011;37881;48.024;8.774;2022-12-07T08:24:41;16.20;;;8.95;;
51828;SDS011;37881;48.024;8.774;2022-12-07T08:27:07;16.25;;;8.10;;
51828;SDS011;37881;48.024;8.774;2022-12-07T08:29:34;17.08;;;9.10;;
51828;SDS011;37881;48.024;8.774;2022-12-07T08:32:00;16.17;;;8.00;;
51828;SDS011;37881;48.024;8.774;2022-12-07T08:34:34;12.15;;;6.15;;
51828;SDS011;37881;48.024;8.774;2022-12-07T08:37:02;14.43;;;6.60;;
51828;SDS011;37881;48.024;8.774;2022-12-07T08:39:28;15.40;;;8.05;;
51828;SDS011;37881;48.024;8.774;2022-12-07T08:41:57;13.63;;;6.68;;
51828;SDS011;37881;48.024;8.774;2022-12-07T08:44:24;12.80;;;6.65;;
51828;SDS011;37881;48.024;8.774;2022-12-07T08:46:52;32.28;;;15.30;;
51828;SDS011;37881;48.024;8.774;2022-12-07T08:49:24;19.40;;;9.20;;
51828;SDS011;37881;48.024;8.774;2022-12-07T08:51:57;16.88;;;7.90;;
51828;SDS011;37881;48.024;8.774;2022-12-07T08:54:24;19.25;;;9.32;;
51828;SDS011;37881;48.024;8.774;2022-12-07T08:56:52;19.13;;;9.35;;
51828;SDS011;37881;48.024;8.774;2022-12-07T08:59:25;17.98;;;8.77;;
51828;SDS011;37881;48.024;8.774;2022-12-07T09:01:53;19.60;;;9.13;;
51828;SDS011;37881;48.024;8.774;2022-12-07T09:04:20;18.23;;;8.60;;
51828;SDS011;37881;48.024;8.774;2022-12-07T09:06:47;18.00;;;8.38;;
51828;SDS011;37881;48.024;8.774;2022-12-07T09:09:15;14.50;;;7.67;;
51828;SDS011;37881;48.024;8.774;2022-12-07T09:11:41;20.77;;;9.35;;
51828;SDS011;37881;48.024;8.774;2022-12-07T09:14:08;18.52;;;8.88;;
51828;SDS011;37881;48.024;8.774;2022-12-07T09:16:35;17.60;;;8.00;;
51828;SDS011;37881;48.024;8.774;2022-12-07T09:19:02;15.82;;;7.90;;
51828;SDS011;37881;48.024;8.774;2022-12-07T09:21:29;17.70;;;7.93;;
51828;SDS011;37881;48.024;8.774;2022-12-07T09:23:55;16.42;;;7.75;;
51828;SDS011;37881;48.024;8.774;2022-12-07T09:26:22;16.98;;;7.70;;
51828;SDS011;37881;48.024;8.774;2022-12-07T09:28:49;15.10;;;8.20;;
51828;SDS011;37881;48.024;8.774;2022-12-07T09:31:16;13.85;;;7.00;;
51828;SDS011;37881;48.024;8.774;2022-12-07T09:33:58;14.63;;;7.40;;
51828;SDS011;37881;48.024;8.774;2022-12-07T09:36:27;16.75;;;7.07;;
51828;SDS011;37881;48.024;8.774;2022-12-07T09:38:54;13.45;;;7.00;;
51828;SDS011;37881;48.024;8.774;2022-12-07T09:41:21;15.45;;;7.18;;
51828;SDS011;37881;48.024;8.774;2022-12-07T09:43:50;15.77;;;7.93;;
51828;SDS011;37881;48.024;8.774;2022-12-07T09:46:17;13.10;;;6.87;;
51828;SDS011;37881;48.024;8.774;2022-12-07T09:48:47;13.82;;;6.82;;
51828;SDS011;37881;48.024;8.774;2022-12-07T09:51:20;13.68;;;6.53;;
51828;SDS011;37881;48.024;8.774;2022-12-07T09:53:52;10.30;;;5.55;;
51828;SDS011;37881;48.024;8.774;2022-12-07T09:56:20;13.27;;;6.70;;
51828;SDS011;37881;48.024;8.774;2022-12-07T09:58:48;15.73;;;8.00;;
51828;SDS011;37881;48.024;8.774;2022-12-07T10:01:16;10.93;;;5.90;;
51828;SDS011;37881;48.024;8.774;2022-12-07T10:03:54;15.15;;;7.60;;
51828;SDS011;37881;48.024;8.774;2022-12-07T10:06:25;14.63;;;7.93;;
51828;SDS011;37881;48.024;8.774;2022-12-07T10:08:51;16.50;;;8.18;;
51828;SDS011;37881;48.024;8.774;2022-12-07T10:11:18;16.73;;;7.60;;
51828;SDS011;37881;48.024;8.774;2022-12-07T10:13:49;24.33;;;7.63;;
51828;SDS011;37881;48.024;8.774;2022-12-07T10:18:59;14.20;;;6.13;;
51828;SDS011;37881;48.024;8.774;2022-12-07T10:24:40;9.27;;;4.53;;
51828;SDS011;37881;48.024;8.774;2022-12-07T10:27:22;9.13;;;3.90;;
51828;SDS011;37881;48.024;8.774;2022-12-07T10:29:55;11.57;;;4.38;;
51828;SDS011;37881;48.024;8.774;2022-12-07T10:32:29;14.07;;;4.10;;
51828;SDS011;37881;48.024;8.774;2022-12-07T10:35:19;14.70;;;4.47;;
51828;SDS011;37881;48.024;8.774;2022-12-07T10:37:46;16.00;;;5.00;;
51828;SDS011;37881;48.024;8.774;2022-12-07T10:40:24;10.20;;;3.90;;
51828;SDS011;37881;48.024;8.774;2022-12-07T10:43:03;16.70;;;4.03;;
51828;SDS011;37881;48.024;8.774;2022-12-07T10:54:09;18.23;;;4.07;;
51828;SDS011;37881;48.024;8.774;2022-12-07T10:57:09;8.38;;;3.42;;
51828;SDS011;37881;48.024;8.774;2022-12-07T11:02:54;15.13;;;3.60;;
51828;SDS011;37881;48.024;8.774;2022-12-07T11:05:16;14.40;;;3.87;;
51828;SDS011;37881;48.024;8.774;2022-12-07T11:07:47;20.63;;;4.28;;
51828;SDS011;37881;48.024;8.774;2022-12-07T11:15:20;15.13;;;5.50;;
51828;SDS011;37881;48.024;8.774;2022-12-07T11:18:03;10.03;;;3.80;;
51828;SDS011;37881;48.024;8.774;2022-12-07T11:26:18;9.05;;;4.47;;
51828;SDS011;37881;48.024;8.774;2022-12-07T11:29:15;14.60;;;4.03;;
51828;SDS011;37881;48.024;8.774;2022-12-07T11:37:36;11.35;;;5.10;;
51828;SDS011;37881;48.024;8.774;2022-12-07T11:40:20;10.63;;;4.20;;
51828;SDS011;37881;48.024;8.774;2022-12-07T11:43:26;10.23;;;4.28;;
51828;SDS011;37881;48.024;8.774;2022-12-07T11:45:48;12.20;;;5.30;;
51828;SDS011;37881;48.024;8.774;2022-12-07T11:51:00;12.00;;;5.32;;
51828;SDS011;37881;48.024;8.774;2022-12-07T11:53:38;12.93;;;5.05;;
51828;SDS011;37881;48.024;8.774;2022-12-07T11:56:13;11.48;;;5.20;;
51828;SDS011;37881;48.024;8.774;2022-12-07T12:03:46;10.18;;;4.70;;
51828;SDS011;37881;48.024;8.774;2022-12-07T12:06:19;11.52;;;4.55;;
51828;SDS011;37881;48.024;8.774;2022-12-07T12:17:43;10.98;;;5.63;;
51828;SDS011;37881;48.024;8.774;2022-12-07T12:23:43;13.50;;;6.00;;
51828;SDS011;37881;48.024;8.774;2022-12-07T12:26:24;9.87;;;4.63;;
51828;SDS011;37881;48.024;8.774;2022-12-07T12:28:54;12.43;;;5.30;;
51828;SDS011;37881;48.024;8.774;2022-12-07T12:31:38;13.40;;;5.75;;
51828;SDS011;37881;48.024;8.774;2022-12-07T12:36:58;11.73;;;5.18;;
51828;SDS011;37881;48.024;8.774;2022-12-07T12:39:25;20.23;;;5.33;;
51828;SDS011;37881;48.024;8.774;2022-12-07T12:41:53;14.15;;;4.70;;
51828;SDS011;37881;48.024;8.774;2022-12-07T12:51:58;11.80;;;5.37;;
51828;SDS011;37881;48.024;8.774;2022-12-07T13:02:29;10.52;;;4.93;;
51828;SDS011;37881;48.024;8.774;2022-12-07T13:18:37;9.80;;;4.50;;
51828;SDS011;37881;48.024;8.774;2022-12-07T13:23:32;10.63;;;4.75;;
51828;SDS011;37881;48.024;8.774;2022-12-07T13:26:09;8.55;;;4.50;;
51828;SDS011;37881;48.024;8.774;2022-12-07T13:28:48;9.48;;;4.45;;
51828;SDS011;37881;48.024;8.774;2022-12-07T13:31:22;10.47;;;4.20;;
51828;SDS011;37881;48.024;8.774;2022-12-07T13:33:50;10.02;;;4.15;;
51828;SDS011;37881;48.024;8.774;2022-12-07T13:36:27;13.23;;;4.13;;
51828;SDS011;37881;48.024;8.774;2022-12-07T13:41:43;9.95;;;4.85;;
51828;SDS011;37881;48.024;8.774;2022-12-07T13:44:12;9.80;;;4.60;;
51828;SDS011;37881;48.024;8.774;2022-12-07T13:46:57;13.93;;;6.13;;
51828;SDS011;37881;48.024;8.774;2022-12-07T13:49:27;10.57;;;4.85;;
51828;SDS011;37881;48.024;8.774;2022-12-07T13:54:59;11.60;;;4.50;;
51828;SDS011;37881;48.024;8.774;2022-12-07T13:57:29;8.63;;;3.97;;
51828;SDS011;37881;48.024;8.774;2022-12-07T13:59:57;14.85;;;4.53;;
51828;SDS011;37881;48.024;8.774;2022-12-07T14:02:31;10.55;;;4.15;;
51828;SDS011;37881;48.024;8.774;2022-12-07T14:05:16;11.23;;;4.65;;
51828;SDS011;37881;48.024;8.774;2022-12-07T14:10:27;12.40;;;4.27;;
51828;SDS011;37881;48.024;8.774;2022-12-07T14:13:03;13.02;;;4.28;;
51828;SDS011;37881;48.024;8.774;2022-12-07T14:15:53;10.80;;;5.13;;
51828;SDS011;37881;48.024;8.774;2022-12-07T14:18:29;9.15;;;4.22;;
51828;SDS011;37881;48.024;8.774;2022-12-07T14:21:03;10.77;;;4.50;;
51828;SDS011;37881;48.024;8.774;2022-12-07T14:23:32;16.27;;;7.30;;
51828;SDS011;37881;48.024;8.774;2022-12-07T14:26:11;16.75;;;5.97;;
51828;SDS011;37881;48.024;8.774;2022-12-07T14:28:40;12.05;;;5.05;;
51828;SDS011;37881;48.024;8.774;2022-12-07T14:31:13;10.90;;;3.97;;
51828;SDS011;37881;48.024;8.774;2022-12-07T14:33:50;6.65;;;3.53;;
51828;SDS011;37881;48.024;8.774;2022-12-07T14:36:17;7.03;;;3.33;;
51828;SDS011;37881;48.024;8.774;2022-12-07T14:38:43;7.70;;;3.20;;
51828;SDS011;37881;48.024;8.774;2022-12-07T14:41:14;19.58;;;4.05;;
51828;SDS011;37881;48.024;8.774;2022-12-07T14:44:07;7.30;;;3.60;;
51828;SDS011;37881;48.024;8.774;2022-12-07T14:46:58;9.80;;;3.97;;
51828;SDS011;37881;48.024;8.774;2022-12-07T14:49:44;9.00;;;3.70;;
51828;SDS011;37881;48.024;8.774;2022-12-07T14:52:21;13.13;;;4.18;;
51828;SDS011;37881;48.024;8.774;2022-12-07T14:55:14;19.05;;;4.50;;
51828;SDS011;37881;48.024;8.774;2022-12-07T14:57:47;8.45;;;4.22;;
51828;SDS011;37881;48.024;8.774;2022-12-07T15:00:14;9.50;;;4.47;;
51828;SDS011;37881;48.024;8.774;2022-12-07T15:02:42;7.93;;;3.53;;
51828;SDS011;37881;48.024;8.774;2022-12-07T15:05:10;9.13;;;4.50;;
51828;SDS011;37881;48.024;8.774;2022-12-07T15:07:42;10.80;;;4.53;;
51828;SDS011;37881;48.024;8.774;2022-12-07T15:10:15;8.73;;;4.30;;
51828;SDS011;37881;48.024;8.774;2022-12-07T15:12:58;8.23;;;3.95;;
51828;SDS011;37881;48.024;8.774;2022-12-07T15:15:43;9.40;;;4.43;;
51828;SDS011;37881;48.024;8.774;2022-12-07T15:18:10;15.75;;;5.03;;
51828;SDS011;37881;48.024;8.774;2022-12-07T15:20:37;7.85;;;4.00;;
51828;SDS011;37881;48.024;8.774;2022-12-07T15:23:05;12.35;;;5.18;;
51828;SDS011;37881;48.024;8.774;2022-12-07T15:25:32;11.35;;;5.45;;
51828;SDS011;37881;48.024;8.774;2022-12-07T15:27:59;16.17;;;5.00;;
51828;SDS011;37881;48.024;8.774;2022-12-07T15:30:26;10.98;;;4.10;;
51828;SDS011;37881;48.024;8.774;2022-12-07T15:32:53;8.63;;;4.00;;
51828;SDS011;37881;48.024;8.774;2022-12-07T15:35:20;7.97;;;3.60;;
51828;SDS011;37881;48.024;8.774;2022-12-07T15:37:47;9.65;;;4.75;;
51828;SDS011;37881;48.024;8.774;2022-12-07T15:40:14;12.80;;;4.00;;
51828;SDS011;37881;48.024;8.774;2022-12-07T15:42:40;9.70;;;4.82;;
51828;SDS011;37881;48.024;8.774;2022-12-07T15:45:07;8.95;;;4.13;;
51828;SDS011;37881;48.024;8.774;2022-12-07T15:47:36;10.02;;;3.75;;
51828;SDS011;37881;48.024;8.774;2022-12-07T15:50:25;8.57;;;3.92;;
51828;SDS011;37881;48.024;8.774;2022-12-07T15:52:51;8.27;;;3.97;;
51828;SDS011;37881;48.024;8.774;2022-12-07T15:55:18;9.90;;;3.83;;
51828;SDS011;37881;48.024;8.774;2022-12-07T15:57:45;10.02;;;4.05;;
51828;SDS011;37881;48.024;8.774;2022-12-07T16:00:12;8.75;;;3.80;;
51828;SDS011;37881;48.024;8.774;2022-12-07T16:02:40;11.73;;;3.85;;
51828;SDS011;37881;48.024;8.774;2022-12-07T16:05:06;8.15;;;3.70;;
51828;SDS011;37881;48.024;8.774;2022-12-07T16:07:33;9.20;;;3.75;;
51828;SDS011;37881;48.024;8.774;2022-12-07T16:10:00;14.02;;;4.43;;
51828;SDS011;37881;48.024;8.774;2022-12-07T16:12:27;15.98;;;5.50;;
51828;SDS011;37881;48.024;8.774;2022-12-07T16:14:53;17.95;;;7.47;;
51828;SDS011;37881;48.024;8.774;2022-12-07T16:17:20;21.47;;;8.37;;
51828;SDS011;37881;48.024;8.774;2022-12-07T16:19:47;15.43;;;6.47;;
51828;SDS011;37881;48.024;8.774;2022-12-07T16:22:14;10.98;;;4.70;;
51828;SDS011;37881;48.024;8.774;2022-12-07T16:24:40;11.75;;;4.65;;
51828;SDS011;37881;48.024;8.774;2022-12-07T16:27:07;22.67;;;9.23;;
51828;SDS011;37881;48.024;8.774;2022-12-07T16:29:34;23.90;;;11.20;;
51828;SDS011;37881;48.024;8.774;2022-12-07T16:32:01;22.80;;;10.02;;
51828;SDS011;37881;48.024;8.774;2022-12-07T16:34:27;23.15;;;9.95;;
51828;SDS011;37881;48.024;8.774;2022-12-07T16:36:54;16.05;;;6.18;;
51828;SDS011;37881;48.024;8.774;2022-12-07T16:39:30;19.33;;;7.85;;
51828;SDS011;37881;48.024;8.774;2022-12-07T16:41:56;23.30;;;9.67;;
51828;SDS011;37881;48.024;8.774;2022-12-07T16:44:23;18.33;;;8.43;;
51828;SDS011;37881;48.024;8.774;2022-12-07T16:46:50;22.45;;;9.80;;
51828;SDS011;37881;48.024;8.774;2022-12-07T16:49:17;14.93;;;6.40;;
51828;SDS011;37881;48.024;8.774;2022-12-07T16:51:44;17.20;;;7.38;;
51828;SDS011;37881;48.024;8.774;2022-12-07T16:54:12;14.60;;;6.53;;
51828;SDS011;37881;48.024;8.774;2022-12-07T16:56:39;14.38;;;6.85;;
51828;SDS011;37881;48.024;8.774;2022-12-07T16:59:06;13.30;;;5.70;;
51828;SDS011;37881;48.024;8.774;2022-12-07T17:01:34;15.70;;;7.10;;